createdAt,value
2019-01-25T00:01:13.640Z,118.97
2019-01-25T00:03:45.422Z,103.97
2019-01-25T00:06:13.739Z,109.55
2019-01-25T00:08:42.058Z,116.83
2019-01-25T00:11:10.367Z,107.43
2019-01-25T00:13:38.674Z,110.93
2019-01-25T00:16:11.845Z,115.32
2019-01-25T00:18:40.213Z,112.27
2019-01-25T00:21:08.662Z,121.17
2019-01-25T00:23:37.030Z,115.40
2019-01-25T00:26:05.372Z,119.70
2019-01-25T00:28:33.625Z,108.43
2019-01-25T00:31:01.995Z,117.17
2019-01-25T00:33:31.896Z,115.43
2019-01-25T00:36:00.172Z,121.40
2019-01-25T00:38:29.959Z,124.27
2019-01-25T00:41:05.673Z,124.03
2019-01-25T00:43:34.036Z,117.13
2019-01-25T00:46:02.298Z,128.10
2019-01-25T00:48:30.926Z,120.47
2019-01-25T00:50:59.193Z,117.77
2019-01-25T00:53:27.467Z,127.40
2019-01-25T00:55:55.806Z,137.07
2019-01-25T00:58:24.123Z,125.87
2019-01-25T01:00:52.376Z,149.10
2019-01-25T01:03:22.016Z,134.70
2019-01-25T01:05:54.479Z,143.27
2019-01-25T01:08:22.741Z,131.87
2019-01-25T01:10:51.066Z,121.53
2019-01-25T01:13:22.207Z,132.93
2019-01-25T01:15:50.600Z,124.30
2019-01-25T01:18:18.883Z,123.60
2019-01-25T01:20:47.156Z,131.20
2019-01-25T01:23:15.437Z,121.50
2019-01-25T01:25:43.897Z,124.53
2019-01-25T01:28:12.167Z,128.10
2019-01-25T01:30:42.726Z,131.37
2019-01-25T01:33:10.498Z,138.53
2019-01-25T01:35:38.762Z,120.57
2019-01-25T01:38:07.077Z,120.50
2019-01-25T01:40:35.428Z,132.72
2019-01-25T01:43:03.698Z,118.53
2019-01-25T01:45:31.979Z,125.70
2019-01-25T01:48:07.258Z,119.67
2019-01-25T01:50:35.554Z,116.62
2019-01-25T01:53:03.820Z,113.47
2019-01-25T01:55:32.130Z,124.80
2019-01-25T01:58:03.325Z,123.77
2019-01-25T02:00:31.695Z,120.63
2019-01-25T02:02:59.972Z,126.57
2019-01-25T02:05:28.266Z,127.80
2019-01-25T02:07:56.625Z,126.87
2019-01-25T02:10:29.664Z,124.40
2019-01-25T02:12:59.340Z,142.70
2019-01-25T02:15:27.726Z,132.57
2019-01-25T02:17:56.086Z,125.33
2019-01-25T02:20:26.432Z,123.97
2019-01-25T02:22:55.227Z,120.57
2019-01-25T02:25:23.611Z,120.23
2019-01-25T02:27:51.938Z,133.17
2019-01-25T02:30:25.242Z,125.67
2019-01-25T02:32:55.188Z,120.73
2019-01-25T02:35:23.452Z,124.70
2019-01-25T02:37:51.709Z,120.47
2019-01-25T02:40:24.451Z,122.37
2019-01-25T02:42:52.792Z,123.30
2019-01-25T02:45:21.149Z,128.33
2019-01-25T02:47:49.484Z,120.62
2019-01-25T02:50:19.190Z,118.73
2019-01-25T02:52:47.436Z,114.60
2019-01-25T02:55:17.045Z,110.37
2019-01-25T02:57:45.433Z,126.70
2019-01-25T03:00:16.980Z,122.17
2019-01-25T03:02:45.317Z,130.70
2019-01-25T03:05:14.525Z,119.63
2019-01-25T03:07:42.866Z,110.72
2019-01-25T03:10:13.778Z,147.68
2019-01-25T03:12:43.678Z,152.07
2019-01-25T03:15:17.221Z,162.03
2019-01-25T03:17:46.188Z,146.43
2019-01-25T03:20:16.965Z,143.10
2019-01-25T03:22:45.807Z,131.67
2019-01-25T03:25:19.792Z,154.40
2019-01-25T03:27:50.629Z,156.00
2019-01-25T03:30:24.218Z,179.53
2019-01-25T03:32:52.532Z,185.87
2019-01-25T03:35:22.722Z,201.73
2019-01-25T03:37:54.324Z,176.03
2019-01-25T03:40:24.343Z,173.63
2019-01-25T03:42:52.596Z,162.57
2019-01-25T03:45:20.900Z,150.80
2019-01-25T03:48:08.633Z,144.60
2019-01-25T03:50:36.900Z,146.40
2019-01-25T03:53:05.185Z,166.30
2019-01-25T03:55:33.511Z,155.33
2019-01-25T03:58:01.776Z,158.67
2019-01-25T04:00:30.515Z,144.00
2019-01-25T04:02:58.940Z,162.83
2019-01-25T04:05:27.319Z,153.70
2019-01-25T04:07:55.585Z,161.55
2019-01-25T04:10:28.180Z,136.27
2019-01-25T04:12:56.466Z,122.63
2019-01-25T04:15:27.644Z,126.23
2019-01-25T04:17:55.966Z,116.83
2019-01-25T04:20:24.483Z,109.13
2019-01-25T04:22:52.769Z,129.00
2019-01-25T04:25:22.472Z,125.78
2019-01-25T04:27:51.417Z,116.23
2019-01-25T04:30:22.196Z,112.20
2019-01-25T04:32:50.533Z,117.57
2019-01-25T04:35:18.795Z,117.23
2019-01-25T04:37:47.508Z,106.67
2019-01-25T04:40:17.299Z,118.80
2019-01-25T04:42:45.564Z,108.97
2019-01-25T04:45:18.493Z,110.33
2019-01-25T04:47:46.749Z,115.52
2019-01-25T04:50:22.536Z,100.63
2019-01-25T04:52:52.466Z,115.63
2019-01-25T04:55:22.634Z,107.00
2019-01-25T04:57:50.947Z,108.80
2019-01-25T05:00:22.479Z,117.35
2019-01-25T05:02:58.684Z,124.17
2019-01-25T05:05:27.483Z,119.07
2019-01-25T05:08:16.645Z,116.63
2019-01-25T05:10:44.966Z,104.87
2019-01-25T05:13:13.284Z,114.57
2019-01-25T05:15:41.556Z,130.50
2019-01-25T05:18:09.836Z,117.93
2019-01-25T05:20:38.093Z,112.17
2019-01-25T05:23:07.825Z,126.97
2019-01-25T05:25:38.709Z,117.27
2019-01-25T05:28:10.259Z,107.47
2019-01-25T05:30:39.193Z,109.85
2019-01-25T05:33:07.473Z,113.80
2019-01-25T05:35:38.539Z,98.70
2019-01-25T05:38:06.808Z,103.77
2019-01-25T05:40:35.245Z,110.57
2019-01-25T05:43:04.731Z,103.85
2019-01-25T05:45:33.262Z,107.67
2019-01-25T05:48:01.579Z,101.15
2019-01-25T05:50:29.827Z,112.17
2019-01-25T05:52:59.790Z,113.90
2019-01-25T05:55:28.280Z,108.85
2019-01-25T05:58:01.123Z,107.83
2019-01-25T06:00:35.700Z,106.77
2019-01-25T06:03:07.068Z,107.03
2019-01-25T06:05:35.380Z,100.77
2019-01-25T06:08:08.812Z,105.83
2019-01-25T06:10:37.080Z,103.60
2019-01-25T06:13:07.512Z,100.73
2019-01-25T06:15:37.619Z,107.50
2019-01-25T06:18:05.947Z,111.50
2019-01-25T06:20:34.362Z,117.93
2019-01-25T06:23:05.368Z,110.00
2019-01-25T06:25:33.597Z,108.03
2019-01-25T06:28:02.016Z,118.20
2019-01-25T06:30:32.280Z,104.20
2019-01-25T06:33:00.615Z,117.83
2019-01-25T06:35:29.022Z,118.25
2019-01-25T06:37:57.299Z,116.77
2019-01-25T06:40:25.586Z,121.67
2019-01-25T06:42:53.907Z,117.87
2019-01-25T06:45:25.469Z,122.23
2019-01-25T06:47:53.862Z,130.70
2019-01-25T06:50:32.702Z,145.40
2019-01-25T06:53:01.062Z,131.03
2019-01-25T06:55:29.346Z,156.87
2019-01-25T06:58:05.426Z,137.06
2019-01-25T07:00:37.827Z,131.60
2019-01-25T07:03:08.128Z,132.63
2019-01-25T07:05:36.154Z,148.03
2019-01-25T07:08:05.482Z,149.60
2019-01-25T07:10:33.745Z,144.73
2019-01-25T07:13:02.235Z,145.67
2019-01-25T07:15:30.595Z,153.67
2019-01-25T07:18:01.471Z,132.53
2019-01-25T07:20:29.741Z,140.00
2019-01-25T07:22:58.053Z,149.90
2019-01-25T07:25:26.319Z,153.53
2019-01-25T07:28:03.538Z,152.73
2019-01-25T07:30:31.849Z,150.03
2019-01-25T07:33:01.749Z,143.67
2019-01-25T07:35:30.079Z,162.15
2019-01-25T07:37:58.370Z,164.77
2019-01-25T07:40:32.918Z,146.07
2019-01-25T07:43:01.388Z,148.97
2019-01-25T07:45:29.685Z,142.80
2019-01-25T07:47:58.011Z,154.90
2019-01-25T07:50:26.527Z,152.20
2019-01-25T07:52:54.885Z,185.17
2019-01-25T07:55:23.251Z,164.03
2019-01-25T07:57:53.441Z,158.50
2019-01-25T08:00:21.785Z,180.20
2019-01-25T08:02:51.042Z,155.17
2019-01-25T08:05:19.400Z,169.62
2019-01-25T08:07:47.764Z,171.40
2019-01-25T08:10:18.821Z,171.90
2019-01-25T08:12:47.154Z,185.23
2019-01-25T08:15:20.815Z,181.95
2019-01-25T08:17:49.129Z,188.37
2019-01-25T08:20:17.424Z,198.85
2019-01-25T08:22:47.419Z,216.00
2019-01-25T08:25:15.838Z,213.40
2019-01-25T08:27:44.402Z,207.00
2019-01-25T08:30:20.548Z,227.90
2019-01-25T08:32:49.121Z,204.90
2019-01-25T08:35:21.243Z,202.63
2019-01-25T08:37:49.603Z,201.80
2019-01-25T08:40:18.983Z,226.67
2019-01-25T08:42:47.324Z,198.17
2019-01-25T08:45:19.157Z,211.90
2019-01-25T08:47:48.002Z,186.45
2019-01-25T08:50:23.287Z,207.83
2019-01-25T08:52:51.658Z,211.43
2019-01-25T08:55:21.410Z,222.77
2019-01-25T08:57:51.569Z,234.20
2019-01-25T09:00:24.632Z,189.90
2019-01-25T09:02:53.561Z,195.67
2019-01-25T09:05:26.635Z,226.03
2019-01-25T09:07:54.970Z,186.92
2019-01-25T09:10:27.125Z,203.70
2019-01-25T09:12:55.403Z,190.07
2019-01-25T09:15:32.143Z,213.10
2019-01-25T09:18:01.364Z,190.73
2019-01-25T09:20:29.628Z,236.03
2019-01-25T09:22:57.897Z,191.90
2019-01-25T09:25:26.196Z,209.32
2019-01-25T09:27:54.463Z,233.80
2019-01-25T09:30:28.664Z,216.90
2019-01-25T09:32:56.987Z,203.93
2019-01-25T09:35:25.325Z,190.50
2019-01-25T09:37:53.803Z,196.07
2019-01-25T09:40:24.449Z,178.25
2019-01-25T09:43:20.904Z,180.20
2019-01-25T09:45:26.074Z,202.17
2019-01-25T09:47:54.428Z,199.73
2019-01-25T09:50:29.297Z,184.13
2019-01-25T09:52:55.003Z,232.37
2019-01-25T09:55:24.922Z,238.93
2019-01-25T09:58:02.275Z,208.40
2019-01-25T10:00:40.037Z,207.05
2019-01-25T10:03:08.513Z,207.50
2019-01-25T10:05:37.292Z,209.07
2019-01-25T10:08:07.916Z,210.72
2019-01-25T10:10:36.357Z,207.60
2019-01-25T10:13:04.773Z,209.25
2019-01-25T10:15:33.105Z,203.40
2019-01-25T10:18:01.474Z,221.00
2019-01-25T10:20:40.226Z,217.60
2019-01-25T10:23:08.572Z,229.30
2019-01-25T10:25:36.969Z,215.53
2019-01-25T10:28:05.240Z,213.03
2019-01-25T10:30:33.496Z,223.47
2019-01-25T10:33:02.773Z,222.50
2019-01-25T10:35:31.699Z,218.65
2019-01-25T10:38:00.177Z,218.20
2019-01-25T10:40:28.517Z,194.00
2019-01-25T10:42:56.786Z,221.80
2019-01-25T10:45:27.992Z,204.40
2019-01-25T10:47:56.273Z,185.97
2019-01-25T10:50:24.588Z,178.82
2019-01-25T10:52:52.894Z,181.87
2019-01-25T10:55:21.970Z,152.70
2019-01-25T10:57:50.215Z,162.88
2019-01-25T11:00:22.678Z,138.47
2019-01-25T11:02:57.708Z,140.37
2019-01-25T11:05:29.032Z,139.73
2019-01-25T11:07:57.349Z,122.15
2019-01-25T11:10:25.601Z,136.70
2019-01-25T11:13:00.526Z,145.20
2019-01-25T11:15:25.072Z,145.30
2019-01-25T11:17:53.374Z,135.93
2019-01-25T11:20:23.443Z,139.13
2019-01-25T11:22:52.754Z,143.75
2019-01-25T11:25:29.425Z,144.77
2019-01-25T11:27:57.724Z,135.20
2019-01-25T11:30:26.012Z,124.50
2019-01-25T11:32:56.035Z,116.50
2019-01-25T11:35:24.321Z,131.13
2019-01-25T11:37:52.675Z,112.93
2019-01-25T11:40:23.895Z,120.83
2019-01-25T11:42:53.712Z,107.80
2019-01-25T11:45:22.282Z,108.20
2019-01-25T11:47:50.671Z,87.63
2019-01-25T11:50:21.920Z,73.57
2019-01-25T11:52:50.201Z,61.70
2019-01-25T11:55:19.308Z,45.28
2019-01-25T11:57:47.570Z,54.63
2019-01-25T12:00:18.569Z,53.83
2019-01-25T12:02:46.885Z,51.47
2019-01-25T12:05:18.013Z,45.73
2019-01-25T12:07:46.352Z,39.97
2019-01-25T12:10:19.743Z,39.27
2019-01-25T12:12:48.008Z,40.67
2019-01-25T12:15:17.203Z,41.27
2019-01-25T12:17:51.541Z,47.20
2019-01-25T12:20:18.407Z,37.90
2019-01-25T12:22:49.152Z,45.30
2019-01-25T12:25:16.696Z,52.83
2019-01-25T12:27:45.001Z,48.50
2019-01-25T12:30:24.997Z,46.20
2019-01-25T12:32:54.201Z,47.60
2019-01-25T12:35:23.069Z,41.57
2019-01-25T12:37:52.081Z,39.23
2019-01-25T12:40:22.671Z,44.15
2019-01-25T12:42:51.068Z,49.43
2019-01-25T12:45:27.539Z,42.97
2019-01-25T12:48:00.473Z,49.70
2019-01-25T12:50:42.843Z,50.97
2019-01-25T12:53:11.950Z,49.07
2019-01-25T12:55:40.331Z,42.77
2019-01-25T12:58:08.785Z,46.08
2019-01-25T13:00:37.121Z,47.57
2019-01-25T13:03:05.483Z,39.47
2019-01-25T13:05:33.756Z,41.67
2019-01-25T13:08:02.016Z,43.38
2019-01-25T13:10:30.289Z,34.97
2019-01-25T13:12:58.628Z,38.17
2019-01-25T13:15:26.887Z,37.90
2019-01-25T13:17:55.914Z,37.15
2019-01-25T13:20:31.035Z,35.50
2019-01-25T13:22:59.393Z,46.00
2019-01-25T13:25:35.766Z,36.10
2019-01-25T13:27:59.362Z,40.03
2019-01-25T13:30:31.967Z,38.53
2019-01-25T13:33:02.036Z,41.47
2019-01-25T13:35:30.396Z,43.10
2019-01-25T13:37:58.811Z,31.47
2019-01-25T13:40:28.128Z,31.57
2019-01-25T13:42:56.388Z,33.23
2019-01-25T13:45:25.124Z,34.93
2019-01-25T13:47:53.465Z,36.35
2019-01-25T13:50:24.258Z,37.33
2019-01-25T13:52:52.528Z,38.77
2019-01-25T13:55:20.799Z,41.07
2019-01-25T13:57:49.126Z,33.23
2019-01-25T14:00:26.044Z,38.90
2019-01-25T14:02:54.299Z,43.50
2019-01-25T14:05:22.565Z,42.67
2019-01-25T14:07:50.973Z,32.83
2019-01-25T14:10:25.526Z,37.83
2019-01-25T14:12:53.876Z,33.90
2019-01-25T14:15:25.535Z,36.67
2019-01-25T14:17:53.796Z,36.60
2019-01-25T14:20:27.961Z,32.20
2019-01-25T14:22:58.660Z,33.60
2019-01-25T14:25:26.987Z,30.60
2019-01-25T14:27:55.308Z,31.00
2019-01-25T14:30:32.082Z,31.83
2019-01-25T14:33:00.368Z,29.27
2019-01-25T14:35:28.633Z,29.77
2019-01-25T14:37:56.878Z,29.20
2019-01-25T14:40:25.143Z,32.83
2019-01-25T14:42:53.644Z,55.17
2019-01-25T14:45:22.028Z,28.67
2019-01-25T14:47:50.327Z,35.57
2019-01-25T14:50:24.131Z,34.20
2019-01-25T14:52:52.417Z,31.13
2019-01-25T14:55:20.717Z,38.83
2019-01-25T14:57:49.007Z,38.03
2019-01-25T15:00:17.336Z,35.73
2019-01-25T15:02:47.620Z,26.40
2019-01-25T15:05:18.041Z,30.97
2019-01-25T15:07:46.395Z,33.17
2019-01-25T15:10:16.727Z,33.17
2019-01-25T15:12:45.253Z,28.43
2019-01-25T15:15:14.498Z,25.87
2019-01-25T15:17:42.786Z,31.20
2019-01-25T15:20:20.175Z,31.43
2019-01-25T15:22:48.436Z,27.00
2019-01-25T15:25:16.850Z,27.00
2019-01-25T15:27:45.175Z,32.43
2019-01-25T15:30:19.255Z,24.00
2019-01-25T15:32:47.568Z,28.83
2019-01-25T15:35:17.373Z,29.40
2019-01-25T15:37:45.671Z,29.77
2019-01-25T15:40:16.522Z,31.77
2019-01-25T15:42:47.503Z,41.63
2019-01-25T15:45:22.099Z,45.20
2019-01-25T15:47:50.451Z,39.80
2019-01-25T15:50:26.303Z,41.73
2019-01-25T15:52:54.552Z,45.33
2019-01-25T15:55:24.651Z,50.63
2019-01-25T15:57:52.928Z,47.05
2019-01-25T16:00:26.520Z,44.50
2019-01-25T16:02:54.831Z,44.67
2019-01-25T16:05:23.695Z,42.57
2019-01-25T16:07:56.175Z,44.17
2019-01-25T16:10:27.531Z,46.10
2019-01-25T16:12:55.875Z,46.70
2019-01-25T16:15:28.032Z,54.97
2019-01-25T16:17:56.487Z,50.37
2019-01-25T16:20:24.933Z,51.10
2019-01-25T16:22:54.727Z,49.57
2019-01-25T16:25:25.559Z,50.27
2019-01-25T16:27:53.957Z,49.90
2019-01-25T16:30:24.962Z,47.08
2019-01-25T16:32:57.615Z,45.70
2019-01-25T16:35:25.924Z,61.67
2019-01-25T16:37:54.340Z,51.33
2019-01-25T16:40:34.527Z,53.37
2019-01-25T16:43:04.463Z,59.63
2019-01-25T16:45:36.562Z,50.73
2019-01-25T16:48:07.163Z,57.80
2019-01-25T16:50:37.730Z,61.70
2019-01-25T16:53:40.798Z,67.20
2019-01-25T16:56:09.242Z,65.33
2019-01-25T16:58:38.611Z,64.50
2019-01-25T17:01:07.027Z,58.93
2019-01-25T17:03:36.011Z,50.10
2019-01-25T17:06:04.492Z,62.57
2019-01-25T17:08:34.189Z,55.87
2019-01-25T17:11:02.770Z,56.10
2019-01-25T17:13:34.080Z,63.40
2019-01-25T17:16:05.037Z,58.63
2019-01-25T17:18:33.377Z,68.27
2019-01-25T17:21:07.603Z,63.90
2019-01-25T17:23:33.710Z,58.53
2019-01-25T17:26:04.675Z,60.93
2019-01-25T17:28:43.033Z,59.00
2019-01-25T17:31:10.018Z,65.33
2019-01-25T17:33:38.474Z,65.93
2019-01-25T17:36:21.265Z,67.60
2019-01-25T17:38:36.796Z,66.77
2019-01-25T17:41:06.064Z,62.73
2019-01-25T17:43:34.672Z,81.57
2019-01-25T17:46:07.409Z,81.03
2019-01-25T17:48:35.788Z,71.33
2019-01-25T17:51:04.228Z,67.07
2019-01-25T17:53:33.484Z,67.17
2019-01-25T17:56:06.729Z,64.33
2019-01-25T17:58:35.007Z,74.58
2019-01-25T18:01:03.320Z,73.97
2019-01-25T18:03:31.603Z,61.77
2019-01-25T18:05:59.923Z,78.47
2019-01-25T18:08:30.133Z,64.60
2019-01-25T18:11:03.872Z,62.25
2019-01-25T18:13:34.881Z,61.65
2019-01-25T18:16:04.697Z,67.03
2019-01-25T18:18:33.075Z,70.37
2019-01-25T18:21:03.136Z,62.57
2019-01-25T18:28:49.034Z,71.83
2019-01-25T18:31:20.545Z,67.47
2019-01-25T18:33:49.187Z,70.80
2019-01-25T18:36:17.765Z,68.50
2019-01-25T18:38:51.088Z,78.57
2019-01-25T18:41:19.703Z,73.87
2019-01-25T18:43:49.712Z,78.97
2019-01-25T18:46:18.323Z,79.90
2019-01-25T18:48:46.703Z,78.87
2019-01-25T18:51:15.354Z,92.13
2019-01-25T18:53:43.723Z,88.00
2019-01-25T18:56:11.998Z,82.20
2019-01-25T18:58:42.128Z,93.52
2019-01-25T19:01:10.574Z,79.57
2019-01-25T19:03:42.058Z,83.70
2019-01-25T19:06:10.377Z,83.47
2019-01-25T19:08:38.694Z,73.30
2019-01-25T19:11:06.960Z,61.60
2019-01-25T19:13:35.203Z,62.70
2019-01-25T19:16:03.565Z,66.60
2019-01-25T19:18:34.072Z,66.00
2019-01-25T19:21:03.668Z,68.78
2019-01-25T19:23:36.416Z,74.50
2019-01-25T19:26:05.045Z,58.30
2019-01-25T19:28:36.728Z,75.03
2019-01-25T19:31:06.761Z,72.97
2019-01-25T19:33:35.387Z,69.17
2019-01-25T19:36:03.831Z,67.13
2019-01-25T19:38:35.444Z,75.00
2019-01-25T19:41:03.968Z,80.07
2019-01-25T19:43:32.318Z,82.45
2019-01-25T19:46:18.912Z,70.27
2019-01-25T19:48:33.654Z,64.10
2019-01-25T19:51:01.965Z,64.50
2019-01-25T19:53:35.817Z,72.77
2019-01-25T19:56:04.554Z,79.73
2019-01-25T19:58:34.569Z,71.70
2019-01-25T20:01:02.875Z,67.47
2019-01-25T20:03:31.414Z,68.45
2019-01-25T20:06:01.397Z,77.60
2019-01-25T20:08:29.871Z,65.15
2019-01-25T20:10:58.406Z,66.53
2019-01-25T20:13:26.824Z,58.87
2019-01-25T20:15:55.102Z,64.67
2019-01-25T20:18:23.624Z,59.63
2019-01-25T20:20:51.971Z,70.27
2019-01-25T20:23:21.990Z,60.10
2019-01-25T20:25:55.428Z,66.33
2019-01-25T20:28:25.419Z,76.15
2019-01-25T20:30:53.896Z,61.87
2019-01-25T20:33:25.570Z,73.07
2019-01-25T20:35:58.417Z,75.57
2019-01-25T20:38:26.729Z,83.57
2019-01-25T20:40:55.095Z,80.50
2019-01-25T20:43:25.112Z,67.30
2019-01-25T20:45:53.460Z,68.13
2019-01-25T20:48:24.641Z,81.82
2019-01-25T20:50:57.481Z,67.53
2019-01-25T20:53:25.844Z,68.80
2019-01-25T20:55:56.752Z,74.60
2019-01-25T20:58:29.304Z,75.87
2019-01-25T21:00:59.473Z,73.97
2019-01-25T21:03:28.129Z,71.73
2019-01-25T21:06:09.802Z,78.67
2019-01-25T21:08:29.836Z,79.63
2019-01-25T21:10:59.464Z,74.63
2019-01-25T21:13:27.800Z,77.33
2019-01-25T21:15:56.227Z,79.43
2019-01-25T21:18:30.776Z,76.07
2019-01-25T21:20:59.356Z,84.03
2019-01-25T21:23:27.892Z,70.65
2019-01-25T21:25:56.213Z,66.43
2019-01-25T21:28:35.109Z,60.70
2019-01-25T21:31:03.410Z,61.67
2019-01-25T21:33:34.155Z,59.05
2019-01-25T21:36:05.724Z,56.13
2019-01-25T21:38:34.219Z,52.30
2019-01-25T21:41:02.801Z,58.37
2019-01-25T21:43:39.574Z,58.43
2019-01-25T21:46:07.834Z,51.30
2019-01-25T21:48:36.239Z,55.35
2019-01-25T21:51:12.530Z,49.17
2019-01-25T21:53:41.011Z,45.78
2019-01-25T21:56:09.360Z,50.20
2019-01-25T21:58:37.668Z,49.37
2019-01-25T22:01:14.834Z,51.37
2019-01-25T22:03:40.354Z,46.27
2019-01-25T22:06:08.688Z,43.83
2019-01-25T22:08:37.010Z,49.77
2019-01-25T22:11:05.265Z,42.23
2019-01-25T22:13:33.658Z,42.90
2019-01-25T22:16:01.965Z,53.87
2019-01-25T22:18:30.269Z,59.53
2019-01-25T22:20:58.546Z,56.63
2019-01-25T22:23:46.309Z,54.43
2019-01-25T22:26:14.583Z,50.00
2019-01-25T22:28:42.911Z,49.07
2019-01-25T22:31:11.174Z,54.80
2019-01-25T22:33:39.445Z,46.77
2019-01-25T22:36:07.810Z,49.40
2019-01-25T22:38:36.086Z,53.90
2019-01-25T22:41:04.444Z,52.90
2019-01-25T22:43:35.801Z,56.07
2019-01-25T22:46:04.199Z,54.23
2019-01-25T22:48:33.520Z,49.53
2019-01-25T22:51:02.066Z,61.08
2019-01-25T22:53:30.341Z,52.20
2019-01-25T22:55:58.642Z,58.00
2019-01-25T22:58:26.987Z,58.40
2019-01-25T23:01:01.310Z,49.03
2019-01-25T23:03:35.745Z,61.25
2019-01-25T23:06:22.417Z,64.53
2019-01-25T23:08:50.736Z,60.50
2019-01-25T23:11:19.220Z,65.43
2019-01-25T23:13:47.556Z,67.00
2019-01-25T23:16:16.043Z,63.80
2019-01-25T23:18:44.323Z,63.23
2019-01-25T23:21:12.740Z,59.20
2019-01-25T23:23:41.038Z,70.50
2019-01-25T23:26:09.333Z,64.17
2019-01-25T23:28:37.981Z,80.47
2019-01-25T23:31:06.225Z,64.22
2019-01-25T23:33:36.908Z,69.23
2019-01-25T23:36:05.380Z,69.57
2019-01-25T23:38:33.703Z,75.57
2019-01-25T23:41:02.002Z,93.27
2019-01-25T23:43:31.975Z,85.70
2019-01-25T23:46:00.320Z,103.13
2019-01-25T23:48:28.570Z,100.40
2019-01-25T23:51:03.278Z,96.63
2019-01-25T23:53:27.216Z,93.53
2019-01-25T23:55:55.654Z,89.53
2019-01-25T23:58:23.934Z,97.25
